sensor_id;sensor_type;location;lat;lon;timestamp;P1;durP1;ratioP1;P2;durP2;ratioP2
20814;SDS011;10568;48.176;16.316;2023-02-08T00:00:19;9.60;;;4.83;;
20814;SDS011;10568;48.176;16.316;2023-02-08T00:02:50;14.83;;;6.07;;
20814;SDS011;10568;48.176;16.316;2023-02-08T00:05:17;9.33;;;5.73;;
20814;SDS011;10568;48.176;16.316;2023-02-08T00:07:44;14.10;;;6.53;;
20814;SDS011;10568;48.176;16.316;2023-02-08T00:10:10;10.43;;;5.83;;
20814;SDS011;10568;48.176;16.316;2023-02-08T00:12:36;11.17;;;6.23;;
20814;SDS011;10568;48.176;16.316;2023-02-08T00:15:03;13.30;;;6.17;;
20814;SDS011;10568;48.176;16.316;2023-02-08T00:17:29;12.37;;;6.07;;
20814;SDS011;10568;48.176;16.316;2023-02-08T00:23:01;10.63;;;5.87;;
20814;SDS011;10568;48.176;16.316;2023-02-08T00:25:27;11.80;;;5.30;;
20814;SDS011;10568;48.176;16.316;2023-02-08T00:27:53;11.07;;;5.33;;
20814;SDS011;10568;48.176;16.316;2023-02-08T00:30:18;15.90;;;5.63;;
20814;SDS011;10568;48.176;16.316;2023-02-08T00:32:44;13.90;;;5.43;;
20814;SDS011;10568;48.176;16.316;2023-02-08T00:35:10;14.70;;;5.43;;
20814;SDS011;10568;48.176;16.316;2023-02-08T00:37:36;7.33;;;4.43;;
20814;SDS011;10568;48.176;16.316;2023-02-08T00:40:02;12.73;;;6.37;;
20814;SDS011;10568;48.176;16.316;2023-02-08T00:42:30;16.33;;;6.57;;
20814;SDS011;10568;48.176;16.316;2023-02-08T00:44:56;12.03;;;6.83;;
20814;SDS011;10568;48.176;16.316;2023-02-08T00:47:23;7.70;;;5.03;;
20814;SDS011;10568;48.176;16.316;2023-02-08T00:49:49;13.80;;;5.83;;
20814;SDS011;10568;48.176;16.316;2023-02-08T00:52:15;16.40;;;5.57;;
20814;SDS011;10568;48.176;16.316;2023-02-08T00:54:43;9.87;;;5.43;;
20814;SDS011;10568;48.176;16.316;2023-02-08T00:57:08;10.67;;;5.30;;
20814;SDS011;10568;48.176;16.316;2023-02-08T00:59:34;9.90;;;5.50;;
20814;SDS011;10568;48.176;16.316;2023-02-08T01:02:00;10.67;;;5.40;;
20814;SDS011;10568;48.176;16.316;2023-02-08T01:04:26;15.43;;;6.80;;
20814;SDS011;10568;48.176;16.316;2023-02-08T01:06:51;10.13;;;5.73;;
20814;SDS011;10568;48.176;16.316;2023-02-08T01:09:17;18.93;;;7.20;;
20814;SDS011;10568;48.176;16.316;2023-02-08T01:11:43;11.23;;;5.63;;
20814;SDS011;10568;48.176;16.316;2023-02-08T01:14:09;12.50;;;5.33;;
20814;SDS011;10568;48.176;16.316;2023-02-08T01:16:34;12.13;;;6.47;;
20814;SDS011;10568;48.176;16.316;2023-02-08T01:19:01;11.50;;;5.57;;
20814;SDS011;10568;48.176;16.316;2023-02-08T01:21:30;13.23;;;5.80;;
20814;SDS011;10568;48.176;16.316;2023-02-08T01:23:58;10.33;;;5.50;;
20814;SDS011;10568;48.176;16.316;2023-02-08T01:26:24;13.97;;;7.20;;
20814;SDS011;10568;48.176;16.316;2023-02-08T01:28:51;15.23;;;5.77;;
20814;SDS011;10568;48.176;16.316;2023-02-08T01:31:19;11.17;;;5.50;;
20814;SDS011;10568;48.176;16.316;2023-02-08T01:33:49;14.17;;;5.80;;
20814;SDS011;10568;48.176;16.316;2023-02-08T01:36:15;15.23;;;6.27;;
20814;SDS011;10568;48.176;16.316;2023-02-08T01:38:42;11.17;;;5.67;;
20814;SDS011;10568;48.176;16.316;2023-02-08T01:41:13;17.27;;;6.83;;
20814;SDS011;10568;48.176;16.316;2023-02-08T01:46:27;11.20;;;5.33;;
20814;SDS011;10568;48.176;16.316;2023-02-08T01:48:53;11.30;;;5.50;;
20814;SDS011;10568;48.176;16.316;2023-02-08T01:51:24;9.97;;;5.73;;
20814;SDS011;10568;48.176;16.316;2023-02-08T01:53:53;11.93;;;5.23;;
20814;SDS011;10568;48.176;16.316;2023-02-08T01:56:22;7.80;;;4.73;;
20814;SDS011;10568;48.176;16.316;2023-02-08T01:58:58;10.43;;;5.10;;
20814;SDS011;10568;48.176;16.316;2023-02-08T02:01:27;15.37;;;4.93;;
20814;SDS011;10568;48.176;16.316;2023-02-08T02:03:55;9.00;;;5.70;;
20814;SDS011;10568;48.176;16.316;2023-02-08T02:06:26;11.17;;;5.87;;
20814;SDS011;10568;48.176;16.316;2023-02-08T02:08:59;10.63;;;5.80;;
20814;SDS011;10568;48.176;16.316;2023-02-08T02:11:29;11.43;;;5.50;;
20814;SDS011;10568;48.176;16.316;2023-02-08T02:13:56;10.37;;;6.30;;
20814;SDS011;10568;48.176;16.316;2023-02-08T02:16:22;10.63;;;5.03;;
20814;SDS011;10568;48.176;16.316;2023-02-08T02:18:48;10.90;;;5.57;;
20814;SDS011;10568;48.176;16.316;2023-02-08T02:26:47;13.53;;;5.53;;
20814;SDS011;10568;48.176;16.316;2023-02-08T02:54:13;17.70;;;6.57;;
20814;SDS011;10568;48.176;16.316;2023-02-08T02:56:43;9.07;;;5.43;;
20814;SDS011;10568;48.176;16.316;2023-02-08T02:59:11;9.30;;;5.63;;
20814;SDS011;10568;48.176;16.316;2023-02-08T03:01:39;10.83;;;5.70;;
20814;SDS011;10568;48.176;16.316;2023-02-08T03:04:14;10.03;;;4.97;;
20814;SDS011;10568;48.176;16.316;2023-02-08T03:06:48;10.17;;;5.23;;
20814;SDS011;10568;48.176;16.316;2023-02-08T03:14:53;8.80;;;5.03;;
20814;SDS011;10568;48.176;16.316;2023-02-08T03:20:09;12.13;;;5.07;;
20814;SDS011;10568;48.176;16.316;2023-02-08T03:25:26;13.13;;;5.90;;
20814;SDS011;10568;48.176;16.316;2023-02-08T03:28:00;9.37;;;5.00;;
20814;SDS011;10568;48.176;16.316;2023-02-08T03:33:11;7.40;;;4.67;;
20814;SDS011;10568;48.176;16.316;2023-02-08T03:36:04;9.70;;;3.57;;
20814;SDS011;10568;48.176;16.316;2023-02-08T03:38:52;8.67;;;4.97;;
20814;SDS011;10568;48.176;16.316;2023-02-08T03:41:22;10.23;;;5.87;;
20814;SDS011;10568;48.176;16.316;2023-02-08T03:43:57;11.83;;;4.50;;
20814;SDS011;10568;48.176;16.316;2023-02-08T03:46:32;8.93;;;4.90;;
20814;SDS011;10568;48.176;16.316;2023-02-08T03:49:08;19.70;;;6.03;;
20814;SDS011;10568;48.176;16.316;2023-02-08T03:51:41;11.47;;;5.40;;
20814;SDS011;10568;48.176;16.316;2023-02-08T03:54:14;12.67;;;5.33;;
20814;SDS011;10568;48.176;16.316;2023-02-08T03:56:46;20.13;;;7.37;;
20814;SDS011;10568;48.176;16.316;2023-02-08T03:59:37;11.60;;;5.70;;
20814;SDS011;10568;48.176;16.316;2023-02-08T04:02:06;10.87;;;4.53;;
20814;SDS011;10568;48.176;16.316;2023-02-08T04:04:42;16.37;;;6.37;;
20814;SDS011;10568;48.176;16.316;2023-02-08T04:07:11;11.00;;;5.80;;
20814;SDS011;10568;48.176;16.316;2023-02-08T04:09:37;8.60;;;5.67;;
20814;SDS011;10568;48.176;16.316;2023-02-08T04:12:03;13.70;;;5.70;;
20814;SDS011;10568;48.176;16.316;2023-02-08T04:14:29;9.60;;;5.33;;
20814;SDS011;10568;48.176;16.316;2023-02-08T04:16:55;8.67;;;4.80;;
20814;SDS011;10568;48.176;16.316;2023-02-08T04:19:20;13.47;;;7.60;;
20814;SDS011;10568;48.176;16.316;2023-02-08T04:21:46;10.97;;;5.90;;
20814;SDS011;10568;48.176;16.316;2023-02-08T04:24:12;7.07;;;4.97;;
20814;SDS011;10568;48.176;16.316;2023-02-08T04:26:38;11.33;;;5.93;;
20814;SDS011;10568;48.176;16.316;2023-02-08T04:29:04;10.33;;;5.63;;
20814;SDS011;10568;48.176;16.316;2023-02-08T04:31:29;8.43;;;5.47;;
20814;SDS011;10568;48.176;16.316;2023-02-08T04:33:55;11.73;;;5.83;;
20814;SDS011;10568;48.176;16.316;2023-02-08T04:36:21;8.93;;;5.33;;
20814;SDS011;10568;48.176;16.316;2023-02-08T04:38:46;13.87;;;5.07;;
20814;SDS011;10568;48.176;16.316;2023-02-08T04:41:12;17.97;;;6.70;;
20814;SDS011;10568;48.176;16.316;2023-02-08T04:43:38;9.93;;;6.20;;
20814;SDS011;10568;48.176;16.316;2023-02-08T04:46:04;10.73;;;6.07;;
20814;SDS011;10568;48.176;16.316;2023-02-08T04:48:29;10.70;;;6.33;;
20814;SDS011;10568;48.176;16.316;2023-02-08T04:50:56;13.50;;;5.07;;
20814;SDS011;10568;48.176;16.316;2023-02-08T04:53:22;11.07;;;5.77;;
20814;SDS011;10568;48.176;16.316;2023-02-08T04:55:49;7.47;;;4.30;;
20814;SDS011;10568;48.176;16.316;2023-02-08T04:58:15;16.40;;;6.87;;
20814;SDS011;10568;48.176;16.316;2023-02-08T05:00:41;10.80;;;4.73;;
20814;SDS011;10568;48.176;16.316;2023-02-08T05:03:07;13.57;;;6.40;;
20814;SDS011;10568;48.176;16.316;2023-02-08T05:05:34;9.53;;;5.60;;
20814;SDS011;10568;48.176;16.316;2023-02-08T05:08:01;12.83;;;5.60;;
20814;SDS011;10568;48.176;16.316;2023-02-08T05:10:27;10.90;;;6.23;;
20814;SDS011;10568;48.176;16.316;2023-02-08T05:12:53;13.17;;;5.53;;
20814;SDS011;10568;48.176;16.316;2023-02-08T05:15:19;10.17;;;5.70;;
20814;SDS011;10568;48.176;16.316;2023-02-08T05:17:47;13.07;;;5.50;;
20814;SDS011;10568;48.176;16.316;2023-02-08T05:20:13;8.47;;;5.10;;
20814;SDS011;10568;48.176;16.316;2023-02-08T05:22:39;14.33;;;5.27;;
20814;SDS011;10568;48.176;16.316;2023-02-08T05:25:06;9.03;;;5.50;;
20814;SDS011;10568;48.176;16.316;2023-02-08T05:27:32;8.47;;;5.33;;
20814;SDS011;10568;48.176;16.316;2023-02-08T05:29:59;12.33;;;5.97;;
20814;SDS011;10568;48.176;16.316;2023-02-08T05:32:25;8.47;;;5.90;;
20814;SDS011;10568;48.176;16.316;2023-02-08T05:34:51;14.40;;;6.73;;
20814;SDS011;10568;48.176;16.316;2023-02-08T05:37:17;11.07;;;5.40;;
20814;SDS011;10568;48.176;16.316;2023-02-08T05:39:43;9.77;;;5.60;;
20814;SDS011;10568;48.176;16.316;2023-02-08T05:42:09;11.33;;;6.27;;
20814;SDS011;10568;48.176;16.316;2023-02-08T05:44:35;8.63;;;5.13;;
20814;SDS011;10568;48.176;16.316;2023-02-08T05:47:01;13.93;;;5.50;;
20814;SDS011;10568;48.176;16.316;2023-02-08T05:49:28;11.03;;;5.87;;
20814;SDS011;10568;48.176;16.316;2023-02-08T05:51:54;9.13;;;5.27;;
20814;SDS011;10568;48.176;16.316;2023-02-08T05:54:19;9.30;;;6.00;;
20814;SDS011;10568;48.176;16.316;2023-02-08T05:56:45;11.33;;;5.33;;
20814;SDS011;10568;48.176;16.316;2023-02-08T05:59:11;11.27;;;6.23;;
20814;SDS011;10568;48.176;16.316;2023-02-08T06:01:38;15.97;;;6.00;;
20814;SDS011;10568;48.176;16.316;2023-02-08T06:04:05;10.87;;;5.73;;
20814;SDS011;10568;48.176;16.316;2023-02-08T06:06:30;8.33;;;5.40;;
20814;SDS011;10568;48.176;16.316;2023-02-08T06:08:56;10.47;;;5.47;;
20814;SDS011;10568;48.176;16.316;2023-02-08T06:11:22;8.70;;;4.93;;
20814;SDS011;10568;48.176;16.316;2023-02-08T06:13:48;9.33;;;5.80;;
20814;SDS011;10568;48.176;16.316;2023-02-08T06:16:14;8.73;;;5.90;;
20814;SDS011;10568;48.176;16.316;2023-02-08T06:18:40;10.50;;;4.97;;
20814;SDS011;10568;48.176;16.316;2023-02-08T06:21:06;10.50;;;6.33;;
20814;SDS011;10568;48.176;16.316;2023-02-08T06:23:32;11.07;;;5.60;;
20814;SDS011;10568;48.176;16.316;2023-02-08T06:25:58;7.60;;;5.27;;
20814;SDS011;10568;48.176;16.316;2023-02-08T06:28:23;9.67;;;6.47;;
20814;SDS011;10568;48.176;16.316;2023-02-08T06:30:49;11.77;;;5.97;;
20814;SDS011;10568;48.176;16.316;2023-02-08T06:33:16;9.43;;;5.10;;
20814;SDS011;10568;48.176;16.316;2023-02-08T06:35:46;9.77;;;5.67;;
20814;SDS011;10568;48.176;16.316;2023-02-08T06:38:15;11.63;;;5.27;;
20814;SDS011;10568;48.176;16.316;2023-02-08T06:40:41;9.80;;;6.33;;
20814;SDS011;10568;48.176;16.316;2023-02-08T06:43:08;12.27;;;5.17;;
20814;SDS011;10568;48.176;16.316;2023-02-08T06:45:33;14.77;;;6.37;;
20814;SDS011;10568;48.176;16.316;2023-02-08T06:51:21;10.40;;;5.00;;
20814;SDS011;10568;48.176;16.316;2023-02-08T06:53:46;8.87;;;6.30;;
20814;SDS011;10568;48.176;16.316;2023-02-08T06:56:12;8.00;;;5.43;;
20814;SDS011;10568;48.176;16.316;2023-02-08T06:58:38;12.37;;;6.03;;
20814;SDS011;10568;48.176;16.316;2023-02-08T07:01:04;14.97;;;6.33;;
20814;SDS011;10568;48.176;16.316;2023-02-08T07:03:30;9.60;;;6.03;;
20814;SDS011;10568;48.176;16.316;2023-02-08T07:05:55;9.17;;;4.73;;
20814;SDS011;10568;48.176;16.316;2023-02-08T07:08:21;8.60;;;6.60;;
20814;SDS011;10568;48.176;16.316;2023-02-08T07:10:47;10.43;;;5.23;;
20814;SDS011;10568;48.176;16.316;2023-02-08T07:13:13;9.57;;;5.83;;
20814;SDS011;10568;48.176;16.316;2023-02-08T07:15:39;11.60;;;5.73;;
20814;SDS011;10568;48.176;16.316;2023-02-08T07:18:04;9.77;;;5.63;;
20814;SDS011;10568;48.176;16.316;2023-02-08T07:20:30;11.67;;;5.23;;
20814;SDS011;10568;48.176;16.316;2023-02-08T07:22:56;13.60;;;4.97;;
20814;SDS011;10568;48.176;16.316;2023-02-08T07:25:23;9.50;;;5.77;;
20814;SDS011;10568;48.176;16.316;2023-02-08T07:27:48;12.70;;;4.60;;
20814;SDS011;10568;48.176;16.316;2023-02-08T07:30:16;14.50;;;6.60;;
20814;SDS011;10568;48.176;16.316;2023-02-08T07:32:42;8.93;;;5.67;;
20814;SDS011;10568;48.176;16.316;2023-02-08T07:35:08;15.67;;;6.77;;
20814;SDS011;10568;48.176;16.316;2023-02-08T07:37:33;13.47;;;7.53;;
20814;SDS011;10568;48.176;16.316;2023-02-08T07:39:59;10.30;;;5.60;;
20814;SDS011;10568;48.176;16.316;2023-02-08T07:42:25;12.47;;;6.53;;
20814;SDS011;10568;48.176;16.316;2023-02-08T07:44:51;17.57;;;8.07;;
20814;SDS011;10568;48.176;16.316;2023-02-08T07:47:16;12.13;;;6.73;;
20814;SDS011;10568;48.176;16.316;2023-02-08T07:49:42;16.40;;;7.43;;
20814;SDS011;10568;48.176;16.316;2023-02-08T07:52:08;14.67;;;7.00;;
20814;SDS011;10568;48.176;16.316;2023-02-08T07:54:34;12.13;;;5.17;;
20814;SDS011;10568;48.176;16.316;2023-02-08T07:56:59;12.33;;;6.50;;
20814;SDS011;10568;48.176;16.316;2023-02-08T07:59:25;12.60;;;6.67;;
20814;SDS011;10568;48.176;16.316;2023-02-08T08:01:51;15.03;;;7.80;;
20814;SDS011;10568;48.176;16.316;2023-02-08T08:04:17;12.17;;;6.63;;
20814;SDS011;10568;48.176;16.316;2023-02-08T08:06:43;14.97;;;7.70;;
20814;SDS011;10568;48.176;16.316;2023-02-08T08:09:10;17.50;;;6.53;;
20814;SDS011;10568;48.176;16.316;2023-02-08T08:11:36;17.37;;;7.70;;
20814;SDS011;10568;48.176;16.316;2023-02-08T08:14:02;10.90;;;6.00;;
20814;SDS011;10568;48.176;16.316;2023-02-08T08:16:28;11.63;;;6.90;;
20814;SDS011;10568;48.176;16.316;2023-02-08T08:18:53;14.57;;;6.53;;
20814;SDS011;10568;48.176;16.316;2023-02-08T08:21:19;18.13;;;7.73;;
20814;SDS011;10568;48.176;16.316;2023-02-08T08:23:45;14.87;;;7.90;;
20814;SDS011;10568;48.176;16.316;2023-02-08T08:26:12;19.23;;;8.17;;
20814;SDS011;10568;48.176;16.316;2023-02-08T08:28:40;12.47;;;5.90;;
20814;SDS011;10568;48.176;16.316;2023-02-08T08:31:11;17.20;;;6.17;;
20814;SDS011;10568;48.176;16.316;2023-02-08T08:33:39;22.07;;;8.57;;
20814;SDS011;10568;48.176;16.316;2023-02-08T08:36:06;17.27;;;7.70;;
20814;SDS011;10568;48.176;16.316;2023-02-08T08:38:32;20.37;;;8.40;;
20814;SDS011;10568;48.176;16.316;2023-02-08T08:40:58;17.63;;;7.67;;
20814;SDS011;10568;48.176;16.316;2023-02-08T08:43:24;20.67;;;8.70;;
20814;SDS011;10568;48.176;16.316;2023-02-08T08:45:50;19.67;;;9.53;;
20814;SDS011;10568;48.176;16.316;2023-02-08T08:48:16;20.97;;;9.30;;
20814;SDS011;10568;48.176;16.316;2023-02-08T08:50:41;17.23;;;7.97;;
20814;SDS011;10568;48.176;16.316;2023-02-08T08:53:07;16.37;;;8.23;;
20814;SDS011;10568;48.176;16.316;2023-02-08T08:55:34;24.70;;;8.00;;
20814;SDS011;10568;48.176;16.316;2023-02-08T08:57:59;19.70;;;9.33;;
20814;SDS011;10568;48.176;16.316;2023-02-08T09:00:25;21.73;;;10.03;;
20814;SDS011;10568;48.176;16.316;2023-02-08T09:02:51;15.13;;;7.83;;
20814;SDS011;10568;48.176;16.316;2023-02-08T09:05:17;20.87;;;9.47;;
20814;SDS011;10568;48.176;16.316;2023-02-08T09:07:43;25.00;;;10.87;;
20814;SDS011;10568;48.176;16.316;2023-02-08T09:10:09;30.03;;;11.10;;
20814;SDS011;10568;48.176;16.316;2023-02-08T09:12:34;24.90;;;11.17;;
20814;SDS011;10568;48.176;16.316;2023-02-08T09:15:01;23.07;;;11.13;;
20814;SDS011;10568;48.176;16.316;2023-02-08T09:17:26;21.87;;;10.40;;
20814;SDS011;10568;48.176;16.316;2023-02-08T09:19:52;21.47;;;11.20;;
20814;SDS011;10568;48.176;16.316;2023-02-08T09:22:18;23.83;;;11.77;;
20814;SDS011;10568;48.176;16.316;2023-02-08T09:24:44;20.33;;;10.63;;
20814;SDS011;10568;48.176;16.316;2023-02-08T09:27:10;24.77;;;11.83;;
20814;SDS011;10568;48.176;16.316;2023-02-08T09:29:36;25.80;;;10.90;;
20814;SDS011;10568;48.176;16.316;2023-02-08T09:32:02;26.83;;;11.37;;
20814;SDS011;10568;48.176;16.316;2023-02-08T09:34:28;29.10;;;11.63;;
20814;SDS011;10568;48.176;16.316;2023-02-08T09:36:55;28.00;;;12.50;;
20814;SDS011;10568;48.176;16.316;2023-02-08T09:39:23;26.17;;;12.00;;
20814;SDS011;10568;48.176;16.316;2023-02-08T09:42:03;28.80;;;12.53;;
20814;SDS011;10568;48.176;16.316;2023-02-08T09:55:47;28.17;;;12.87;;
20814;SDS011;10568;48.176;16.316;2023-02-08T09:58:21;29.53;;;12.63;;
20814;SDS011;10568;48.176;16.316;2023-02-08T10:01:00;27.50;;;12.07;;
20814;SDS011;10568;48.176;16.316;2023-02-08T10:05:57;29.07;;;12.93;;
20814;SDS011;10568;48.176;16.316;2023-02-08T10:08:23;28.23;;;12.70;;
20814;SDS011;10568;48.176;16.316;2023-02-08T10:10:54;32.73;;;13.30;;
20814;SDS011;10568;48.176;16.316;2023-02-08T10:24:43;24.83;;;11.67;;
20814;SDS011;10568;48.176;16.316;2023-02-08T10:30:39;26.63;;;12.50;;
20814;SDS011;10568;48.176;16.316;2023-02-08T10:35:56;28.20;;;12.07;;
20814;SDS011;10568;48.176;16.316;2023-02-08T10:38:27;28.30;;;14.00;;
20814;SDS011;10568;48.176;16.316;2023-02-08T10:40:59;26.60;;;12.30;;
20814;SDS011;10568;48.176;16.316;2023-02-08T10:43:34;30.83;;;12.67;;
20814;SDS011;10568;48.176;16.316;2023-02-08T10:51:28;33.43;;;13.60;;
20814;SDS011;10568;48.176;16.316;2023-02-08T10:53:54;26.37;;;11.97;;
20814;SDS011;10568;48.176;16.316;2023-02-08T10:59:23;26.13;;;12.20;;
20814;SDS011;10568;48.176;16.316;2023-02-08T11:01:54;31.73;;;12.60;;
20814;SDS011;10568;48.176;16.316;2023-02-08T11:04:22;28.90;;;12.80;;
20814;SDS011;10568;48.176;16.316;2023-02-08T11:06:48;30.40;;;12.73;;
20814;SDS011;10568;48.176;16.316;2023-02-08T11:09:20;24.67;;;12.37;;
20814;SDS011;10568;48.176;16.316;2023-02-08T11:11:51;24.83;;;12.53;;
20814;SDS011;10568;48.176;16.316;2023-02-08T11:14:19;26.13;;;13.53;;
20814;SDS011;10568;48.176;16.316;2023-02-08T11:16:48;29.10;;;13.60;;
20814;SDS011;10568;48.176;16.316;2023-02-08T11:20:00;29.77;;;13.03;;
20814;SDS011;10568;48.176;16.316;2023-02-08T11:22:20;28.57;;;12.43;;
20814;SDS011;10568;48.176;16.316;2023-02-08T11:24:55;22.23;;;11.53;;
20814;SDS011;10568;48.176;16.316;2023-02-08T11:32:42;24.30;;;11.53;;
20814;SDS011;10568;48.176;16.316;2023-02-08T11:35:11;26.47;;;11.90;;
20814;SDS011;10568;48.176;16.316;2023-02-08T11:37:47;22.30;;;9.97;;
20814;SDS011;10568;48.176;16.316;2023-02-08T11:40:20;28.10;;;12.27;;
20814;SDS011;10568;48.176;16.316;2023-02-08T11:43:21;17.40;;;9.13;;
20814;SDS011;10568;48.176;16.316;2023-02-08T11:45:49;20.30;;;9.83;;
20814;SDS011;10568;48.176;16.316;2023-02-08T11:48:58;24.07;;;10.50;;
20814;SDS011;10568;48.176;16.316;2023-02-08T11:51:08;20.87;;;10.20;;
20814;SDS011;10568;48.176;16.316;2023-02-08T11:53:38;22.37;;;9.73;;
20814;SDS011;10568;48.176;16.316;2023-02-08T11:56:15;20.17;;;10.13;;
20814;SDS011;10568;48.176;16.316;2023-02-08T11:59:16;19.70;;;9.50;;
20814;SDS011;10568;48.176;16.316;2023-02-08T12:01:47;19.17;;;9.27;;
20814;SDS011;10568;48.176;16.316;2023-02-08T12:07:46;18.03;;;8.67;;
20814;SDS011;10568;48.176;16.316;2023-02-08T12:10:43;15.77;;;8.23;;
20814;SDS011;10568;48.176;16.316;2023-02-08T12:13:28;19.13;;;8.40;;
20814;SDS011;10568;48.176;16.316;2023-02-08T12:27:22;16.60;;;8.67;;
20814;SDS011;10568;48.176;16.316;2023-02-08T12:30:02;15.73;;;8.67;;
20814;SDS011;10568;48.176;16.316;2023-02-08T12:35:50;18.43;;;7.33;;
20814;SDS011;10568;48.176;16.316;2023-02-08T12:38:43;18.03;;;8.53;;
20814;SDS011;10568;48.176;16.316;2023-02-08T12:41:52;18.00;;;7.80;;
20814;SDS011;10568;48.176;16.316;2023-02-08T12:47:05;18.57;;;8.63;;
20814;SDS011;10568;48.176;16.316;2023-02-08T12:52:43;13.03;;;7.40;;
20814;SDS011;10568;48.176;16.316;2023-02-08T12:55:34;19.90;;;8.73;;
20814;SDS011;10568;48.176;16.316;2023-02-08T13:00:55;13.27;;;6.53;;
20814;SDS011;10568;48.176;16.316;2023-02-08T13:06:44;14.20;;;6.83;;
20814;SDS011;10568;48.176;16.316;2023-02-08T13:09:16;12.90;;;6.03;;
20814;SDS011;10568;48.176;16.316;2023-02-08T13:11:56;14.60;;;6.50;;
20814;SDS011;10568;48.176;16.316;2023-02-08T13:14:33;14.73;;;6.77;;
20814;SDS011;10568;48.176;16.316;2023-02-08T13:17:26;13.50;;;6.47;;
20814;SDS011;10568;48.176;16.316;2023-02-08T13:22:24;14.23;;;6.90;;
20814;SDS011;10568;48.176;16.316;2023-02-08T13:24:51;13.13;;;6.47;;
20814;SDS011;10568;48.176;16.316;2023-02-08T13:27:21;14.73;;;6.00;;
20814;SDS011;10568;48.176;16.316;2023-02-08T13:29:50;13.97;;;6.73;;
20814;SDS011;10568;48.176;16.316;2023-02-08T13:34:59;10.10;;;5.90;;
20814;SDS011;10568;48.176;16.316;2023-02-08T13:37:31;13.17;;;5.47;;
20814;SDS011;10568;48.176;16.316;2023-02-08T13:42:33;9.73;;;5.30;;
20814;SDS011;10568;48.176;16.316;2023-02-08T13:45:03;10.00;;;5.00;;
20814;SDS011;10568;48.176;16.316;2023-02-08T13:47:42;11.73;;;6.30;;
20814;SDS011;10568;48.176;16.316;2023-02-08T13:53:08;13.13;;;5.07;;
20814;SDS011;10568;48.176;16.316;2023-02-08T13:55:39;9.03;;;5.03;;
20814;SDS011;10568;48.176;16.316;2023-02-08T14:03:35;7.80;;;4.63;;
20814;SDS011;10568;48.176;16.316;2023-02-08T14:06:05;7.87;;;4.80;;
20814;SDS011;10568;48.176;16.316;2023-02-08T14:09:27;15.10;;;4.53;;
20814;SDS011;10568;48.176;16.316;2023-02-08T14:11:45;10.33;;;5.30;;
20814;SDS011;10568;48.176;16.316;2023-02-08T14:14:19;9.33;;;4.97;;
20814;SDS011;10568;48.176;16.316;2023-02-08T14:19:28;6.63;;;3.87;;
20814;SDS011;10568;48.176;16.316;2023-02-08T14:22:02;8.53;;;3.60;;
20814;SDS011;10568;48.176;16.316;2023-02-08T14:32:41;8.50;;;4.03;;
20814;SDS011;10568;48.176;16.316;2023-02-08T14:37:42;6.57;;;3.57;;
20814;SDS011;10568;48.176;16.316;2023-02-08T14:45:32;6.67;;;3.97;;
20814;SDS011;10568;48.176;16.316;2023-02-08T14:58:36;9.63;;;4.87;;
20814;SDS011;10568;48.176;16.316;2023-02-08T15:01:06;7.93;;;4.60;;
20814;SDS011;10568;48.176;16.316;2023-02-08T15:03:38;11.53;;;5.00;;
20814;SDS011;10568;48.176;16.316;2023-02-08T15:09:18;10.60;;;4.73;;
20814;SDS011;10568;48.176;16.316;2023-02-08T15:14:26;10.90;;;5.43;;
20814;SDS011;10568;48.176;16.316;2023-02-08T15:16:55;10.50;;;5.77;;
20814;SDS011;10568;48.176;16.316;2023-02-08T15:19:25;9.67;;;4.47;;
20814;SDS011;10568;48.176;16.316;2023-02-08T15:21:54;9.50;;;4.60;;
20814;SDS011;10568;48.176;16.316;2023-02-08T15:24:47;9.70;;;4.87;;
20814;SDS011;10568;48.176;16.316;2023-02-08T15:27:18;8.27;;;4.83;;
20814;SDS011;10568;48.176;16.316;2023-02-08T15:29:46;8.13;;;4.20;;
20814;SDS011;10568;48.176;16.316;2023-02-08T15:32:13;9.53;;;4.90;;
20814;SDS011;10568;48.176;16.316;2023-02-08T15:34:42;8.60;;;4.73;;
20814;SDS011;10568;48.176;16.316;2023-02-08T15:37:17;11.23;;;6.20;;
20814;SDS011;10568;48.176;16.316;2023-02-08T15:39:43;13.43;;;5.27;;
20814;SDS011;10568;48.176;16.316;2023-02-08T15:42:17;9.67;;;4.77;;
20814;SDS011;10568;48.176;16.316;2023-02-08T15:44:45;11.33;;;5.17;;
20814;SDS011;10568;48.176;16.316;2023-02-08T15:50:25;9.40;;;5.50;;
20814;SDS011;10568;48.176;16.316;2023-02-08T15:53:00;10.33;;;4.83;;
20814;SDS011;10568;48.176;16.316;2023-02-08T15:55:33;10.20;;;4.83;;
20814;SDS011;10568;48.176;16.316;2023-02-08T15:58:07;11.07;;;5.90;;
20814;SDS011;10568;48.176;16.316;2023-02-08T16:01:02;9.63;;;4.90;;
20814;SDS011;10568;48.176;16.316;2023-02-08T16:03:30;9.40;;;5.43;;
20814;SDS011;10568;48.176;16.316;2023-02-08T16:05:58;9.97;;;5.67;;
20814;SDS011;10568;48.176;16.316;2023-02-08T16:08:30;13.00;;;5.60;;
20814;SDS011;10568;48.176;16.316;2023-02-08T16:11:02;11.33;;;5.20;;
20814;SDS011;10568;48.176;16.316;2023-02-08T16:13:35;11.37;;;5.43;;
20814;SDS011;10568;48.176;16.316;2023-02-08T16:18:47;7.80;;;4.87;;
20814;SDS011;10568;48.176;16.316;2023-02-08T16:21:21;8.30;;;4.20;;
20814;SDS011;10568;48.176;16.316;2023-02-08T16:26:41;7.87;;;4.97;;
20814;SDS011;10568;48.176;16.316;2023-02-08T16:29:20;10.13;;;5.20;;
20814;SDS011;10568;48.176;16.316;2023-02-08T16:31:48;8.37;;;4.43;;
20814;SDS011;10568;48.176;16.316;2023-02-08T16:34:41;9.63;;;4.67;;
20814;SDS011;10568;48.176;16.316;2023-02-08T16:37:16;9.67;;;5.17;;
20814;SDS011;10568;48.176;16.316;2023-02-08T16:39:59;6.87;;;4.00;;
20814;SDS011;10568;48.176;16.316;2023-02-08T16:42:28;11.57;;;5.07;;
20814;SDS011;10568;48.176;16.316;2023-02-08T16:45:09;6.37;;;3.77;;
20814;SDS011;10568;48.176;16.316;2023-02-08T16:50:16;9.40;;;4.73;;
20814;SDS011;10568;48.176;16.316;2023-02-08T16:52:47;6.90;;;3.90;;
20814;SDS011;10568;48.176;16.316;2023-02-08T16:55:35;7.80;;;4.20;;
20814;SDS011;10568;48.176;16.316;2023-02-08T16:58:02;9.43;;;4.73;;
20814;SDS011;10568;48.176;16.316;2023-02-08T17:00:32;9.60;;;4.83;;
20814;SDS011;10568;48.176;16.316;2023-02-08T17:02:59;6.30;;;3.73;;
20814;SDS011;10568;48.176;16.316;2023-02-08T17:05:27;11.40;;;4.20;;
20814;SDS011;10568;48.176;16.316;2023-02-08T17:07:55;12.70;;;4.77;;
20814;SDS011;10568;48.176;16.316;2023-02-08T17:10:27;8.97;;;4.50;;
20814;SDS011;10568;48.176;16.316;2023-02-08T17:12:56;6.53;;;4.10;;
20814;SDS011;10568;48.176;16.316;2023-02-08T17:15:23;8.33;;;3.80;;
20814;SDS011;10568;48.176;16.316;2023-02-08T17:17:49;11.13;;;4.40;;
20814;SDS011;10568;48.176;16.316;2023-02-08T17:20:23;9.60;;;4.90;;
20814;SDS011;10568;48.176;16.316;2023-02-08T17:22:51;8.53;;;4.50;;
20814;SDS011;10568;48.176;16.316;2023-02-08T17:25:20;12.20;;;4.57;;
20814;SDS011;10568;48.176;16.316;2023-02-08T17:30:26;8.10;;;4.87;;
20814;SDS011;10568;48.176;16.316;2023-02-08T17:32:54;8.20;;;4.20;;
20814;SDS011;10568;48.176;16.316;2023-02-08T17:35:22;11.23;;;5.03;;
20814;SDS011;10568;48.176;16.316;2023-02-08T17:37:50;10.17;;;4.93;;
20814;SDS011;10568;48.176;16.316;2023-02-08T17:40:20;13.33;;;5.53;;
20814;SDS011;10568;48.176;16.316;2023-02-08T17:42:51;8.10;;;4.70;;
20814;SDS011;10568;48.176;16.316;2023-02-08T17:45:18;11.63;;;5.03;;
20814;SDS011;10568;48.176;16.316;2023-02-08T17:47:44;7.63;;;4.53;;
20814;SDS011;10568;48.176;16.316;2023-02-08T17:50:11;8.20;;;4.23;;